createdAt,value
2018-09-02T00:00:34.000Z,0
2018-09-02T00:01:42.649Z,0
2018-09-02T00:02:51.281Z,0
2018-09-02T00:03:59.926Z,0
2018-09-02T00:05:08.837Z,0
2018-09-02T00:06:17.484Z,0
2018-09-02T00:07:26.128Z,0
2018-09-02T00:08:35.025Z,0
2018-09-02T00:09:43.673Z,0
2018-09-02T00:10:52.314Z,0
2018-09-02T00:12:00.969Z,0
2018-09-02T00:13:09.602Z,0
2018-09-02T00:14:18.251Z,0
2018-09-02T00:15:26.889Z,0
2018-09-02T00:16:35.544Z,0
2018-09-02T00:17:44.173Z,0
2018-09-02T00:18:52.821Z,0
2018-09-02T00:20:01.466Z,0
2018-09-02T00:21:10.644Z,0
2018-09-02T00:22:19.820Z,0
2018-09-02T00:23:28.456Z,0
2018-09-02T00:24:37.100Z,0
2018-09-02T00:25:46.340Z,0
2018-09-02T00:26:54.992Z,0
2018-09-02T00:28:03.633Z,0
2018-09-02T00:29:12.283Z,0
2018-09-02T00:30:20.924Z,0
2018-09-02T00:31:29.570Z,0
2018-09-02T00:32:38.209Z,0
2018-09-02T00:33:47.001Z,0
2018-09-02T00:34:55.491Z,0
2018-09-02T00:36:04.142Z,0
2018-09-02T00:37:13.045Z,0
2018-09-02T00:38:21.950Z,0
2018-09-02T00:39:30.587Z,0
2018-09-02T00:40:39.234Z,0
2018-09-02T00:41:47.874Z,0
2018-09-02T00:42:56.520Z,0
2018-09-02T00:44:05.435Z,0
2018-09-02T00:45:14.338Z,0
2018-09-02T00:46:23.242Z,0
2018-09-02T00:47:31.885Z,0
2018-09-02T00:48:40.794Z,0
2018-09-02T00:49:49.433Z,0
2018-09-02T00:50:58.345Z,0
2018-09-02T00:52:06.987Z,0
2018-09-02T00:53:15.634Z,0
2018-09-02T00:54:24.318Z,0
2018-09-02T00:55:32.924Z,0
2018-09-02T00:56:41.568Z,0
2018-09-02T00:57:50.266Z,0
2018-09-02T00:58:58.857Z,0
2018-09-02T01:00:07.500Z,0
2018-09-02T01:01:16.140Z,0
2018-09-02T01:02:25.043Z,0
2018-09-02T01:03:33.959Z,0
2018-09-02T01:04:42.604Z,0
2018-09-02T01:05:51.245Z,0
2018-09-02T01:06:59.881Z,0
2018-09-02T01:08:08.537Z,0
2018-09-02T01:09:17.165Z,0
2018-09-02T01:10:25.811Z,0
2018-09-02T01:11:34.449Z,0
2018-09-02T01:12:43.406Z,0
2018-09-02T01:13:52.049Z,0
2018-09-02T01:15:00.690Z,0
2018-09-02T01:16:09.336Z,0
2018-09-02T01:17:17.982Z,0
2018-09-02T01:18:26.623Z,0
2018-09-02T01:19:35.268Z,0
2018-09-02T01:20:43.914Z,0
2018-09-02T01:21:52.552Z,0
2018-09-02T01:23:01.291Z,0
2018-09-02T01:24:09.842Z,0
2018-09-02T01:25:18.489Z,0
2018-09-02T01:26:27.127Z,0
2018-09-02T01:27:35.767Z,0
2018-09-02T01:28:44.409Z,0
2018-09-02T01:29:53.054Z,0
2018-09-02T01:31:01.692Z,0
2018-09-02T01:32:10.335Z,0
2018-09-02T01:33:18.983Z,0
2018-09-02T01:34:27.629Z,0
2018-09-02T01:35:36.270Z,0
2018-09-02T01:36:45.443Z,0
2018-09-02T01:37:54.087Z,0
2018-09-02T01:39:02.729Z,0
2018-09-02T01:40:11.367Z,0
2018-09-02T01:41:20.008Z,0
2018-09-02T01:42:28.649Z,0
2018-09-02T01:43:37.297Z,0
2018-09-02T01:44:45.937Z,0
2018-09-02T01:45:54.842Z,0
2018-09-02T01:47:03.484Z,0
2018-09-02T01:48:12.131Z,0
2018-09-02T01:49:20.769Z,0
2018-09-02T01:50:29.417Z,0
2018-09-02T01:51:38.319Z,0
2018-09-02T01:52:46.967Z,0
2018-09-02T01:53:55.607Z,0
2018-09-02T01:55:04.248Z,0
2018-09-02T01:56:13.428Z,0
2018-09-02T01:57:22.327Z,0
2018-09-02T01:58:30.972Z,0
2018-09-02T01:59:39.614Z,0
2018-09-02T02:00:48.254Z,0
2018-09-02T02:01:56.892Z,0
2018-09-02T02:03:05.538Z,0
2018-09-02T02:04:14.182Z,0
2018-09-02T02:05:22.817Z,0
2018-09-02T02:06:31.455Z,0
2018-09-02T02:07:40.102Z,0
2018-09-02T02:08:48.739Z,0
2018-09-02T02:09:57.384Z,0
2018-09-02T02:11:06.025Z,0
2018-09-02T02:12:14.671Z,0
2018-09-02T02:13:23.312Z,0
2018-09-02T02:14:31.955Z,0
2018-09-02T02:15:40.598Z,0
2018-09-02T02:16:49.234Z,0
2018-09-02T02:17:57.876Z,0
2018-09-02T02:19:06.547Z,0
2018-09-02T02:20:15.458Z,0
2018-09-02T02:21:24.101Z,0
2018-09-02T02:22:33.009Z,0
2018-09-02T02:23:41.914Z,0
2018-09-02T02:24:50.557Z,0
2018-09-02T02:25:59.202Z,0
2018-09-02T02:27:07.859Z,0
2018-09-02T02:28:16.483Z,0
2018-09-02T02:29:25.125Z,0
2018-09-02T02:30:33.768Z,0
2018-09-02T02:31:42.407Z,0
2018-09-02T02:32:51.312Z,0
2018-09-02T02:34:00.213Z,0
2018-09-02T02:35:09.125Z,0
2018-09-02T02:36:17.764Z,0
2018-09-02T02:37:26.413Z,0
2018-09-02T02:38:35.049Z,0
2018-09-02T02:39:43.702Z,0
2018-09-02T02:40:52.338Z,0
2018-09-02T02:42:00.984Z,0
2018-09-02T02:43:09.617Z,0
2018-09-02T02:44:18.266Z,0
2018-09-02T02:45:26.923Z,0
2018-09-02T02:46:35.823Z,0
2018-09-02T02:47:44.458Z,0
2018-09-02T02:48:53.100Z,0
2018-09-02T02:50:01.753Z,0
2018-09-02T02:51:10.396Z,0
2018-09-02T02:52:19.048Z,0
2018-09-02T02:53:27.682Z,0
2018-09-02T02:54:36.592Z,0
2018-09-02T02:55:45.234Z,0
2018-09-02T02:56:53.889Z,0
2018-09-02T02:58:02.523Z,0
2018-09-02T02:59:11.170Z,0
2018-09-02T03:00:20.072Z,0
2018-09-02T03:01:28.987Z,0
2018-09-02T03:02:37.619Z,0
2018-09-02T03:03:46.263Z,0
2018-09-02T03:04:54.902Z,0
2018-09-02T03:06:03.551Z,0
2018-09-02T03:07:12.191Z,0
2018-09-02T03:08:21.112Z,0
2018-09-02T03:09:29.752Z,0
2018-09-02T03:10:38.394Z,0
2018-09-02T03:11:47.043Z,0
2018-09-02T03:12:55.680Z,0
2018-09-02T03:14:04.333Z,0
2018-09-02T03:15:12.964Z,0
2018-09-02T03:16:21.609Z,0
2018-09-02T03:17:30.246Z,0
2018-09-02T03:18:38.904Z,0
2018-09-02T03:19:47.535Z,0
2018-09-02T03:20:56.199Z,0
2018-09-02T03:22:04.842Z,0
2018-09-02T03:23:13.756Z,0
2018-09-02T03:24:22.399Z,0
2018-09-02T03:25:31.040Z,0
2018-09-02T03:26:39.691Z,0
2018-09-02T03:27:48.343Z,0
2018-09-02T03:28:57.249Z,0
2018-09-02T03:30:06.145Z,0
2018-09-02T03:31:14.801Z,0
2018-09-02T03:32:23.440Z,0
2018-09-02T03:33:32.093Z,0
2018-09-02T03:34:40.728Z,0
2018-09-02T03:35:49.371Z,0
2018-09-02T03:36:58.014Z,0
2018-09-02T03:38:06.658Z,0
2018-09-02T03:39:15.295Z,0
2018-09-02T03:40:24.224Z,0
2018-09-02T03:41:33.127Z,0
2018-09-02T03:42:42.041Z,0
2018-09-02T03:43:50.681Z,0
2018-09-02T03:44:59.326Z,0
2018-09-02T03:46:07.971Z,0
2018-09-02T03:47:16.609Z,0
2018-09-02T03:48:25.258Z,0
2018-09-02T03:49:34.166Z,0
2018-09-02T03:50:42.810Z,0
2018-09-02T03:51:51.457Z,0
2018-09-02T03:53:00.110Z,0
2018-09-02T03:54:08.755Z,0
2018-09-02T03:55:17.398Z,0
2018-09-02T03:56:26.034Z,0
2018-09-02T03:57:34.949Z,0
2018-09-02T03:58:43.589Z,0
2018-09-02T03:59:52.497Z,0
2018-09-02T04:01:01.396Z,0
2018-09-02T04:02:10.043Z,0
2018-09-02T04:03:18.688Z,0
2018-09-02T04:04:27.597Z,0
2018-09-02T04:05:36.514Z,0
2018-09-02T04:06:45.158Z,0
2018-09-02T04:07:54.065Z,0
2018-09-02T04:09:02.709Z,0
2018-09-02T04:10:11.354Z,0
2018-09-02T04:11:20.326Z,0
2018-09-02T04:12:28.953Z,0
2018-09-02T04:13:37.856Z,0
2018-09-02T04:14:46.504Z,0
2018-09-02T04:15:55.138Z,0
2018-09-02T04:17:04.050Z,0
2018-09-02T04:18:12.689Z,0
2018-09-02T04:19:21.336Z,0
2018-09-02T04:20:29.975Z,0
2018-09-02T04:21:38.617Z,0
2018-09-02T04:22:47.257Z,0
2018-09-02T04:23:55.898Z,0
2018-09-02T04:25:04.544Z,0
2018-09-02T04:26:13.189Z,0
2018-09-02T04:27:21.832Z,0
2018-09-02T04:28:30.735Z,0
2018-09-02T04:29:39.383Z,0
2018-09-02T04:30:48.022Z,0
2018-09-02T04:31:56.669Z,0
2018-09-02T04:33:05.309Z,0
2018-09-02T04:34:13.966Z,0
2018-09-02T04:35:22.877Z,0
2018-09-02T04:36:31.528Z,0
2018-09-02T04:37:40.167Z,0
2018-09-02T04:38:48.814Z,0
2018-09-02T04:39:57.460Z,0
2018-09-02T04:41:06.371Z,5
2018-09-02T04:42:15.278Z,5
2018-09-02T04:43:24.175Z,5
2018-09-02T04:44:33.086Z,5
2018-09-02T04:45:41.727Z,5
2018-09-02T04:46:50.382Z,5
2018-09-02T04:47:59.278Z,5
2018-09-02T04:49:07.932Z,5
2018-09-02T04:50:17.137Z,10
2018-09-02T04:51:26.075Z,10
2018-09-02T04:52:34.708Z,10
2018-09-02T04:53:43.618Z,10
2018-09-02T04:54:52.258Z,15
2018-09-02T04:56:00.907Z,15
2018-09-02T04:57:09.548Z,15
2018-09-02T04:58:18.187Z,15
2018-09-02T04:59:27.356Z,20
2018-09-02T05:00:35.996Z,20
2018-09-02T05:01:44.914Z,20
2018-09-02T05:02:53.558Z,20
2018-09-02T05:04:02.199Z,25
2018-09-02T05:05:11.096Z,25
2018-09-02T05:06:19.748Z,25
2018-09-02T05:07:28.385Z,25
2018-09-02T05:08:37.042Z,25
2018-09-02T05:09:45.675Z,30
2018-09-02T05:10:54.331Z,30
2018-09-02T05:12:02.971Z,30
2018-09-02T05:13:11.618Z,30
2018-09-02T05:14:20.667Z,30
2018-09-02T05:15:29.310Z,35
2018-09-02T05:16:37.958Z,35
2018-09-02T05:17:46.603Z,35
2018-09-02T05:18:55.521Z,35
2018-09-02T05:20:04.161Z,40
2018-09-02T05:21:12.815Z,40
2018-09-02T05:22:21.712Z,40
2018-09-02T05:23:30.359Z,40
2018-09-02T05:24:38.991Z,45
2018-09-02T05:25:47.908Z,45
2018-09-02T05:26:57.063Z,50
2018-09-02T05:28:05.718Z,45
2018-09-02T05:29:14.882Z,50
2018-09-02T05:30:23.526Z,55
2018-09-02T05:31:32.180Z,55
2018-09-02T05:32:40.823Z,60
2018-09-02T05:33:49.996Z,60
2018-09-02T05:34:58.647Z,65
2018-09-02T05:36:07.292Z,65
2018-09-02T05:37:15.935Z,70
2018-09-02T05:38:24.574Z,70
2018-09-02T05:39:33.216Z,70
2018-09-02T05:40:41.853Z,70
2018-09-02T05:41:50.504Z,75
2018-09-02T05:42:59.137Z,75
2018-09-02T05:44:07.921Z,75
2018-09-02T05:45:16.833Z,75
2018-09-02T05:46:25.483Z,80
2018-09-02T05:47:34.117Z,85
2018-09-02T05:48:42.759Z,85
2018-09-02T05:49:51.400Z,90
2018-09-02T05:51:00.310Z,90
2018-09-02T05:52:09.228Z,95
2018-09-02T05:53:17.862Z,95
2018-09-02T05:54:26.508Z,95
2018-09-02T05:55:35.151Z,95
2018-09-02T05:56:44.065Z,95
2018-09-02T05:57:52.705Z,95
2018-09-02T05:59:01.352Z,90
2018-09-02T06:00:09.986Z,90
2018-09-02T06:01:19.170Z,90
2018-09-02T06:02:28.070Z,90
2018-09-02T06:03:36.717Z,90
2018-09-02T06:04:45.620Z,90
2018-09-02T06:05:54.272Z,90
2018-09-02T06:07:02.912Z,90
2018-09-02T06:08:11.831Z,90
2018-09-02T06:09:20.458Z,90
2018-09-02T06:10:29.102Z,90
2018-09-02T06:11:37.749Z,90
2018-09-02T06:12:46.391Z,90
2018-09-02T06:13:55.037Z,95
2018-09-02T06:15:03.674Z,95
2018-09-02T06:16:12.580Z,95
2018-09-02T06:17:21.335Z,100
2018-09-02T06:18:29.874Z,105
2018-09-02T06:19:38.512Z,100
2018-09-02T06:20:47.157Z,100
2018-09-02T06:21:55.794Z,100
2018-09-02T06:23:04.447Z,105
2018-09-02T06:24:13.341Z,105
2018-09-02T06:25:22.264Z,105
2018-09-02T06:26:30.905Z,105
2018-09-02T06:27:40.084Z,105
2018-09-02T06:28:48.996Z,105
2018-09-02T06:29:57.638Z,105
2018-09-02T06:31:06.277Z,105
2018-09-02T06:32:14.920Z,105
2018-09-02T06:33:23.835Z,110
2018-09-02T06:34:32.478Z,110
2018-09-02T06:35:41.121Z,110
2018-09-02T06:36:49.759Z,110
2018-09-02T06:37:58.684Z,110
2018-09-02T06:39:07.328Z,110
2018-09-02T06:40:15.970Z,110
2018-09-02T06:41:24.610Z,110
2018-09-02T06:42:33.259Z,110
2018-09-02T06:43:41.905Z,115
2018-09-02T06:44:50.550Z,115
2018-09-02T06:45:59.454Z,115
2018-09-02T06:47:08.631Z,115
2018-09-02T06:48:17.542Z,120
2018-09-02T06:49:26.186Z,120
2018-09-02T06:50:34.832Z,125
2018-09-02T06:51:43.470Z,130
2018-09-02T06:52:52.122Z,130
2018-09-02T06:54:01.030Z,130
2018-09-02T06:55:09.679Z,130
2018-09-02T06:56:18.579Z,130
2018-09-02T06:57:27.223Z,130
2018-09-02T06:58:36.218Z,130
2018-09-02T06:59:44.856Z,130
2018-09-02T07:00:53.497Z,135
2018-09-02T07:02:02.404Z,125
2018-09-02T07:03:11.045Z,125
2018-09-02T07:04:19.695Z,125
2018-09-02T07:05:28.337Z,125
2018-09-02T07:06:37.035Z,125
2018-09-02T07:07:45.622Z,125
2018-09-02T07:08:54.264Z,125
2018-09-02T07:10:02.913Z,125
2018-09-02T07:11:12.102Z,125
2018-09-02T07:12:20.752Z,125
2018-09-02T07:13:29.394Z,125
2018-09-02T07:14:38.419Z,125
2018-09-02T07:15:47.063Z,125
2018-09-02T07:16:55.977Z,125
2018-09-02T07:18:04.882Z,125
2018-09-02T07:19:13.531Z,130
2018-09-02T07:20:22.174Z,125
2018-09-02T07:21:30.822Z,125
2018-09-02T07:22:39.460Z,125
2018-09-02T07:23:48.106Z,125
2018-09-02T07:24:56.751Z,130
2018-09-02T07:26:05.398Z,125
2018-09-02T07:27:14.041Z,125
2018-09-02T07:28:22.679Z,125
2018-09-02T07:29:31.324Z,125
2018-09-02T07:30:39.975Z,125
2018-09-02T07:31:48.609Z,135
2018-09-02T07:32:57.526Z,135
2018-09-02T07:34:06.166Z,130
2018-09-02T07:35:14.822Z,135
2018-09-02T07:36:23.462Z,130
2018-09-02T07:37:32.114Z,130
2018-09-02T07:38:40.761Z,130
2018-09-02T07:39:49.408Z,130
2018-09-02T07:40:58.043Z,130
2018-09-02T07:42:06.692Z,130
2018-09-02T07:43:15.338Z,130
2018-09-02T07:44:23.986Z,130
2018-09-02T07:45:32.632Z,130
2018-09-02T07:46:41.268Z,135
2018-09-02T07:47:49.918Z,135
2018-09-02T07:48:58.557Z,135
2018-09-02T07:50:07.213Z,135
2018-09-02T07:51:15.853Z,135
2018-09-02T07:52:24.501Z,135
2018-09-02T07:53:33.142Z,135
2018-09-02T07:54:41.810Z,135
2018-09-02T07:55:50.432Z,135
2018-09-02T07:56:59.349Z,135
2018-09-02T07:58:07.993Z,135
2018-09-02T07:59:16.649Z,140
2018-09-02T08:00:25.293Z,135
2018-09-02T08:01:33.932Z,135
2018-09-02T08:02:42.622Z,135
2018-09-02T08:03:51.214Z,140
2018-09-02T08:04:59.874Z,140
2018-09-02T08:06:08.522Z,140
2018-09-02T08:07:17.172Z,140
2018-09-02T08:08:25.809Z,140
2018-09-02T08:09:34.463Z,140
2018-09-02T08:10:43.105Z,140
2018-09-02T08:11:52.280Z,140
2018-09-02T08:13:00.915Z,140
2018-09-02T08:14:09.572Z,140
2018-09-02T08:15:18.216Z,135
2018-09-02T08:16:27.129Z,140
2018-09-02T08:17:36.030Z,140
2018-09-02T08:18:44.678Z,145
2018-09-02T08:19:53.419Z,140
2018-09-02T08:21:01.974Z,140
2018-09-02T08:22:10.882Z,140
2018-09-02T08:23:19.521Z,140
2018-09-02T08:24:28.174Z,140
2018-09-02T08:25:36.817Z,140
2018-09-02T08:26:46.385Z,145
2018-09-02T08:27:54.854Z,145
2018-09-02T08:29:03.500Z,145
2018-09-02T08:30:12.688Z,145
2018-09-02T08:31:21.343Z,145
2018-09-02T08:32:30.249Z,145
2018-09-02T08:33:38.898Z,145
2018-09-02T08:34:47.539Z,150
2018-09-02T08:35:56.190Z,155
2018-09-02T08:37:05.108Z,145
2018-09-02T08:38:13.754Z,150
2018-09-02T08:39:22.402Z,150
2018-09-02T08:40:31.046Z,150
2018-09-02T08:41:39.697Z,150
2018-09-02T08:42:48.631Z,150
2018-09-02T08:43:57.256Z,150
2018-09-02T08:45:05.897Z,150
2018-09-02T08:46:14.549Z,150
2018-09-02T08:47:23.193Z,150
2018-09-02T08:48:31.843Z,150
2018-09-02T08:49:40.752Z,150
2018-09-02T08:50:49.669Z,150
2018-09-02T08:51:58.312Z,150
2018-09-02T08:53:06.961Z,150
2018-09-02T08:54:15.863Z,150
2018-09-02T08:55:24.774Z,150
2018-09-02T08:56:33.696Z,150
2018-09-02T08:57:42.348Z,150
2018-09-02T08:58:51.259Z,150
2018-09-02T08:59:59.900Z,155
2018-09-02T09:01:08.550Z,155
2018-09-02T09:02:17.194Z,160
2018-09-02T09:03:25.847Z,155
2018-09-02T09:04:34.493Z,155
2018-09-02T09:05:43.139Z,155
2018-09-02T09:06:51.789Z,155
2018-09-02T09:08:00.635Z,155
2018-09-02T09:09:10.169Z,155
2018-09-02T09:10:18.635Z,160
2018-09-02T09:11:27.281Z,155
2018-09-02T09:12:35.932Z,155
2018-09-02T09:13:44.838Z,155
2018-09-02T09:14:53.485Z,155
2018-09-02T09:16:02.133Z,155
2018-09-02T09:17:11.279Z,155
2018-09-02T09:18:20.053Z,155
2018-09-02T09:19:28.700Z,160
2018-09-02T09:20:37.617Z,155
2018-09-02T09:21:46.647Z,155
2018-09-02T09:22:55.305Z,155
2018-09-02T09:24:04.758Z,155
2018-09-02T09:25:13.908Z,155
2018-09-02T09:26:22.414Z,155
2018-09-02T09:27:31.053Z,155
2018-09-02T09:28:39.706Z,155
2018-09-02T09:29:48.354Z,160
2018-09-02T09:30:57.005Z,155
2018-09-02T09:32:05.701Z,155
2018-09-02T09:33:14.297Z,155
2018-09-02T09:34:22.947Z,155
2018-09-02T09:35:31.862Z,155
2018-09-02T09:36:40.512Z,155
2018-09-02T09:37:49.159Z,155
2018-09-02T09:38:57.805Z,155
2018-09-02T09:40:06.452Z,155
2018-09-02T09:41:15.106Z,155
2018-09-02T09:42:23.754Z,155
2018-09-02T09:43:32.399Z,155
2018-09-02T09:44:41.042Z,155
2018-09-02T09:45:49.763Z,155
2018-09-02T09:46:58.344Z,160
2018-09-02T09:48:07.264Z,155
2018-09-02T09:49:15.906Z,155
2018-09-02T09:50:24.557Z,155
2018-09-02T09:51:33.204Z,165
2018-09-02T09:52:41.854Z,160
2018-09-02T09:53:50.503Z,155
2018-09-02T09:54:59.149Z,160
2018-09-02T09:56:07.795Z,160
2018-09-02T09:57:16.443Z,160
2018-09-02T09:58:25.102Z,160
2018-09-02T09:59:33.740Z,160
2018-09-02T10:00:42.387Z,160
2018-09-02T10:01:51.036Z,165
2018-09-02T10:02:59.688Z,165
2018-09-02T10:04:08.331Z,165
2018-09-02T10:05:16.981Z,165
2018-09-02T10:06:25.627Z,160
2018-09-02T10:07:34.542Z,160
2018-09-02T10:08:43.190Z,160
2018-09-02T10:09:51.870Z,160
2018-09-02T10:11:00.485Z,160
2018-09-02T10:12:09.397Z,160
2018-09-02T10:13:18.053Z,160
2018-09-02T10:14:26.697Z,160
2018-09-02T10:15:35.349Z,160
2018-09-02T10:16:43.989Z,160
2018-09-02T10:17:52.641Z,160
2018-09-02T10:19:01.291Z,160
2018-09-02T10:20:09.938Z,165
2018-09-02T10:21:18.580Z,165
2018-09-02T10:22:27.233Z,160
2018-09-02T10:23:36.145Z,165
2018-09-02T10:24:44.799Z,165
2018-09-02T10:25:53.438Z,160
2018-09-02T10:27:02.088Z,165
2018-09-02T10:28:10.741Z,165
2018-09-02T10:29:19.396Z,165
2018-09-02T10:30:28.044Z,165
2018-09-02T10:31:36.683Z,165
2018-09-02T10:32:45.336Z,170
2018-09-02T10:33:53.981Z,140
2018-09-02T10:35:02.665Z,180
2018-09-02T10:36:11.278Z,185
2018-09-02T10:37:20.197Z,125
2018-09-02T10:38:28.839Z,130
2018-09-02T10:39:37.497Z,160
2018-09-02T10:40:46.138Z,200
2018-09-02T10:41:55.323Z,190
2018-09-02T10:43:03.970Z,145
2018-09-02T10:44:12.630Z,165
2018-09-02T10:45:21.279Z,115
2018-09-02T10:46:29.918Z,140
2018-09-02T10:47:38.564Z,175
2018-09-02T10:48:47.217Z,175
2018-09-02T10:49:55.872Z,170
2018-09-02T10:51:04.516Z,170
2018-09-02T10:52:13.168Z,170
2018-09-02T10:53:21.814Z,175
2018-09-02T10:54:30.472Z,175
2018-09-02T10:55:39.117Z,175
2018-09-02T10:56:47.768Z,175
2018-09-02T10:57:56.407Z,175
2018-09-02T10:59:05.065Z,175
2018-09-02T11:00:13.712Z,175
2018-09-02T11:01:22.626Z,175
2018-09-02T11:02:31.264Z,175
2018-09-02T11:03:40.190Z,175
2018-09-02T11:04:49.375Z,175
2018-09-02T11:05:58.021Z,175
2018-09-02T11:07:06.671Z,175
2018-09-02T11:08:15.316Z,175
2018-09-02T11:09:24.245Z,175
2018-09-02T11:10:32.890Z,175
2018-09-02T11:11:41.814Z,175
2018-09-02T11:12:50.454Z,175
2018-09-02T11:13:59.408Z,175
2018-09-02T11:15:08.033Z,175
2018-09-02T11:16:16.955Z,175
2018-09-02T11:17:25.595Z,175
2018-09-02T11:18:34.244Z,110
2018-09-02T11:19:42.892Z,155
2018-09-02T11:20:51.553Z,180
2018-09-02T11:22:00.200Z,180
2018-09-02T11:23:08.845Z,140
2018-09-02T11:24:18.021Z,175
2018-09-02T11:25:26.671Z,175
2018-09-02T11:26:35.598Z,175
2018-09-02T11:27:44.243Z,175
2018-09-02T11:28:52.891Z,175
2018-09-02T11:30:01.534Z,175
2018-09-02T11:31:10.189Z,175
2018-09-02T11:32:18.838Z,175
2018-09-02T11:33:27.746Z,175
2018-09-02T11:34:36.655Z,175
2018-09-02T11:35:45.572Z,175
2018-09-02T11:36:54.222Z,180
2018-09-02T11:38:03.130Z,180
2018-09-02T11:39:11.775Z,180
2018-09-02T11:40:20.425Z,175
2018-09-02T11:41:29.074Z,175
2018-09-02T11:42:37.722Z,175
2018-09-02T11:43:46.638Z,175
2018-09-02T11:44:55.329Z,175
2018-09-02T11:46:04.200Z,175
2018-09-02T11:47:12.850Z,175
2018-09-02T11:48:21.771Z,175
2018-09-02T11:49:30.416Z,175
2018-09-02T11:50:39.065Z,175
2018-09-02T11:51:47.723Z,175
2018-09-02T11:52:56.905Z,175
2018-09-02T11:54:05.818Z,175
2018-09-02T11:55:15.009Z,175
2018-09-02T11:56:23.656Z,175
2018-09-02T11:57:32.322Z,175
2018-09-02T11:58:41.240Z,175
2018-09-02T11:59:50.153Z,175
2018-09-02T12:00:59.063Z,175
2018-09-02T12:02:07.711Z,175
2018-09-02T12:03:16.371Z,175
2018-09-02T12:04:25.555Z,175
2018-09-02T12:05:34.199Z,175
2018-09-02T12:06:42.841Z,175
2018-09-02T12:07:51.496Z,175
2018-09-02T12:09:00.147Z,175
2018-09-02T12:10:08.797Z,175
2018-09-02T12:11:17.449Z,175
2018-09-02T12:12:26.104Z,170
2018-09-02T12:13:34.771Z,170
2018-09-02T12:14:43.666Z,170
2018-09-02T12:15:52.577Z,170
2018-09-02T12:17:01.228Z,170
2018-09-02T12:18:09.877Z,170
2018-09-02T12:19:18.528Z,170
2018-09-02T12:20:27.444Z,170
2018-09-02T12:21:36.090Z,170
2018-09-02T12:22:45.009Z,170
2018-09-02T12:23:53.653Z,175
2018-09-02T12:25:02.311Z,170
2018-09-02T12:26:10.950Z,170
2018-09-02T12:27:19.867Z,170
2018-09-02T12:28:28.513Z,170
2018-09-02T12:29:37.172Z,170
2018-09-02T12:30:45.819Z,170
2018-09-02T12:31:54.473Z,170
2018-09-02T12:33:03.121Z,170
2018-09-02T12:34:11.780Z,170
2018-09-02T12:35:20.427Z,175
2018-09-02T12:36:29.334Z,175
2018-09-02T12:37:37.984Z,175
2018-09-02T12:38:46.631Z,170
2018-09-02T12:39:55.288Z,175
2018-09-02T12:41:03.932Z,175
2018-09-02T12:42:12.608Z,170
2018-09-02T12:43:21.228Z,180
2018-09-02T12:44:29.888Z,175
2018-09-02T12:45:38.792Z,175
2018-09-02T12:46:47.447Z,175
2018-09-02T12:47:56.465Z,170
2018-09-02T12:49:05.011Z,170
2018-09-02T12:50:13.664Z,170
2018-09-02T12:51:22.317Z,170
2018-09-02T12:52:31.220Z,170
2018-09-02T12:53:39.876Z,170
2018-09-02T12:54:48.799Z,175
2018-09-02T12:55:57.458Z,170
2018-09-02T12:57:06.111Z,170
2018-09-02T12:58:14.752Z,170
2018-09-02T12:59:23.405Z,170
2018-09-02T13:00:32.054Z,170
2018-09-02T13:01:40.717Z,170
2018-09-02T13:02:49.366Z,170
2018-09-02T13:03:58.020Z,170
2018-09-02T13:05:06.665Z,170
2018-09-02T13:06:15.324Z,170
2018-09-02T13:07:23.964Z,170
2018-09-02T13:08:32.616Z,175
2018-09-02T13:09:41.266Z,170
2018-09-02T13:10:49.923Z,170
2018-09-02T13:11:58.572Z,170
2018-09-02T13:13:07.217Z,170
2018-09-02T13:14:15.865Z,170
2018-09-02T13:15:24.580Z,170
2018-09-02T13:16:33.168Z,170
2018-09-02T13:17:41.816Z,165
2018-09-02T13:18:50.498Z,165
2018-09-02T13:19:59.113Z,165
2018-09-02T13:21:07.764Z,170
2018-09-02T13:22:16.429Z,165
2018-09-02T13:23:25.076Z,160
2018-09-02T13:24:33.785Z,160
2018-09-02T13:25:42.371Z,160
2018-09-02T13:26:51.024Z,160
2018-09-02T13:27:59.674Z,160
2018-09-02T13:29:08.594Z,160
2018-09-02T13:30:17.283Z,160
2018-09-02T13:31:25.886Z,160
2018-09-02T13:32:34.534Z,160
2018-09-02T13:33:43.560Z,160
2018-09-02T13:34:52.418Z,160
2018-09-02T13:36:01.063Z,155
2018-09-02T13:37:09.718Z,155
2018-09-02T13:38:18.622Z,155
2018-09-02T13:39:27.340Z,155
2018-09-02T13:40:35.932Z,150
2018-09-02T13:41:44.587Z,150
2018-09-02T13:42:53.228Z,150
2018-09-02T13:44:01.886Z,150
2018-09-02T13:45:10.533Z,150
2018-09-02T13:46:19.184Z,150
2018-09-02T13:47:27.824Z,145
2018-09-02T13:48:36.967Z,145
2018-09-02T13:49:45.540Z,145
2018-09-02T13:50:54.194Z,145
2018-09-02T13:52:02.846Z,145
2018-09-02T13:53:11.492Z,145
2018-09-02T13:54:20.689Z,140
2018-09-02T13:55:29.607Z,140
2018-09-02T13:56:38.266Z,145
2018-09-02T13:57:46.914Z,140
2018-09-02T13:58:55.830Z,135
2018-09-02T14:00:04.474Z,135
2018-09-02T14:01:13.155Z,135
2018-09-02T14:02:22.146Z,135
2018-09-02T14:03:31.062Z,135
2018-09-02T14:04:39.710Z,135
2018-09-02T14:05:48.371Z,135
2018-09-02T14:06:57.016Z,135
2018-09-02T14:08:05.785Z,135
2018-09-02T14:09:14.313Z,135
2018-09-02T14:10:22.962Z,135
2018-09-02T14:11:31.620Z,135
2018-09-02T14:12:40.541Z,135
2018-09-02T14:13:49.460Z,135
2018-09-02T14:14:58.105Z,135
2018-09-02T14:16:06.765Z,135
2018-09-02T14:17:15.451Z,130
2018-09-02T14:18:24.335Z,130
2018-09-02T14:19:32.997Z,130
2018-09-02T14:20:41.633Z,130
2018-09-02T14:21:50.278Z,130
2018-09-02T14:22:58.930Z,130
2018-09-02T14:24:07.578Z,125
2018-09-02T14:25:16.230Z,125
2018-09-02T14:26:25.144Z,125
2018-09-02T14:27:33.796Z,125
2018-09-02T14:28:42.448Z,125
2018-09-02T14:29:51.093Z,120
2018-09-02T14:30:59.741Z,120
2018-09-02T14:32:08.391Z,120
2018-09-02T14:33:17.047Z,120
2018-09-02T14:34:25.692Z,120
2018-09-02T14:35:34.343Z,120
2018-09-02T14:36:42.991Z,120
2018-09-02T14:37:51.645Z,120
2018-09-02T14:39:00.291Z,120
2018-09-02T14:40:09.210Z,115
2018-09-02T14:41:17.857Z,115
2018-09-02T14:42:26.516Z,120
2018-09-02T14:43:35.165Z,120
2018-09-02T14:44:43.813Z,120
2018-09-02T14:45:52.466Z,120
2018-09-02T14:47:01.121Z,120
2018-09-02T14:48:10.039Z,120
2018-09-02T14:49:18.958Z,120
2018-09-02T14:50:27.610Z,115
2018-09-02T14:51:36.519Z,115
2018-09-02T14:52:45.171Z,115
2018-09-02T14:53:53.818Z,120
2018-09-02T14:55:02.469Z,115
2018-09-02T14:56:11.116Z,115
2018-09-02T14:57:19.765Z,115
2018-09-02T14:58:28.412Z,115
2018-09-02T14:59:37.330Z,115
2018-09-02T15:00:46.243Z,115
2018-09-02T15:01:54.897Z,115
2018-09-02T15:03:03.545Z,115
2018-09-02T15:04:12.194Z,120
2018-09-02T15:05:20.841Z,120
2018-09-02T15:06:29.489Z,120
2018-09-02T15:07:38.663Z,120
2018-09-02T15:08:47.312Z,120
2018-09-02T15:09:56.231Z,120
2018-09-02T15:11:04.878Z,120
2018-09-02T15:12:13.795Z,125
2018-09-02T15:13:22.445Z,120
2018-09-02T15:14:31.101Z,120
2018-09-02T15:15:39.747Z,120
2018-09-02T15:16:48.396Z,120
2018-09-02T15:17:57.574Z,125
2018-09-02T15:19:06.488Z,125
2018-09-02T15:20:15.136Z,120
2018-09-02T15:21:24.501Z,125
2018-09-02T15:22:32.966Z,130
2018-09-02T15:23:41.615Z,130
2018-09-02T15:24:50.271Z,135
2018-09-02T15:25:58.918Z,140
2018-09-02T15:27:07.625Z,150
2018-09-02T15:28:16.212Z,150
2018-09-02T15:29:24.869Z,160
2018-09-02T15:30:33.519Z,165
2018-09-02T15:31:42.170Z,175
2018-09-02T15:32:50.816Z,180
2018-09-02T15:33:59.472Z,180
2018-09-02T15:35:08.386Z,180
2018-09-02T15:36:17.309Z,180
2018-09-02T15:37:25.957Z,190
2018-09-02T15:38:34.607Z,195
2018-09-02T15:39:43.258Z,195
2018-09-02T15:40:51.911Z,195
2018-09-02T15:42:00.563Z,190
2018-09-02T15:43:09.473Z,190
2018-09-02T15:44:18.456Z,190
2018-09-02T15:45:27.433Z,185
2018-09-02T15:46:36.354Z,180
2018-09-02T15:47:45.264Z,165
2018-09-02T15:48:54.454Z,155
2018-09-02T15:50:03.104Z,145
2018-09-02T15:51:11.758Z,135
2018-09-02T15:52:20.407Z,130
2018-09-02T15:53:29.058Z,115
2018-09-02T15:54:37.973Z,110
2018-09-02T15:55:46.628Z,100
2018-09-02T15:56:55.282Z,90
2018-09-02T15:58:03.932Z,85
2018-09-02T15:59:12.579Z,80
2018-09-02T16:00:21.498Z,80
2018-09-02T16:01:30.154Z,85
2018-09-02T16:02:38.805Z,85
2018-09-02T16:03:47.725Z,100
2018-09-02T16:04:56.371Z,110
2018-09-02T16:06:05.028Z,120
2018-09-02T16:07:14.196Z,120
2018-09-02T16:08:22.846Z,115
2018-09-02T16:09:31.491Z,110